createdAt,value
2022-10-06T00:01:03.319Z,11.10
2022-10-06T00:03:31.055Z,11.30
2022-10-06T00:06:02.310Z,11.50
2022-10-06T00:08:31.945Z,11.50
2022-10-06T00:10:58.774Z,11.60
2022-10-06T00:13:26.650Z,11.80
2022-10-06T00:15:53.922Z,11.90
2022-10-06T00:18:20.753Z,11.90
2022-10-06T00:20:58.231Z,11.80
2022-10-06T00:23:26.048Z,11.80
2022-10-06T00:25:52.895Z,11.70
2022-10-06T00:28:19.779Z,11.70
2022-10-06T00:30:47.384Z,11.60
2022-10-06T00:33:16.771Z,11.50
2022-10-06T00:35:44.625Z,11.50
2022-10-06T00:38:13.427Z,11.50
2022-10-06T00:40:45.929Z,11.50
2022-10-06T00:43:40.031Z,11.50
2022-10-06T00:46:23.144Z,11.40
2022-10-06T00:48:54.740Z,11.40
2022-10-06T00:51:22.423Z,11.40
2022-10-06T00:53:50.309Z,11.40
2022-10-06T00:56:17.084Z,11.40
2022-10-06T00:58:43.895Z,11.30
2022-10-06T01:01:12.610Z,11.30
2022-10-06T01:03:45.798Z,11.30
2022-10-06T01:06:13.185Z,11.30
2022-10-06T01:08:40.310Z,11.30
2022-10-06T01:11:13.223Z,11.20
2022-10-06T01:13:43.812Z,11.20
2022-10-06T01:16:24.430Z,11.20
2022-10-06T01:18:53.903Z,11.20
2022-10-06T01:21:41.611Z,11.20
2022-10-06T01:24:09.691Z,11.10
2022-10-06T01:26:42.159Z,11.00
2022-10-06T01:29:09.878Z,10.90
2022-10-06T01:31:38.227Z,10.90
2022-10-06T01:34:05.817Z,10.80
2022-10-06T01:36:32.574Z,10.70
2022-10-06T01:39:01.607Z,10.70
2022-10-06T01:41:28.436Z,10.60
2022-10-06T01:43:55.284Z,10.50
2022-10-06T01:46:22.236Z,10.50
2022-10-06T01:48:49.775Z,10.50
2022-10-06T01:51:17.402Z,10.50
2022-10-06T01:53:44.394Z,10.50
2022-10-06T01:56:11.469Z,10.50
2022-10-06T01:58:39.126Z,10.60
2022-10-06T02:01:08.127Z,10.60
2022-10-06T02:03:37.698Z,10.60
2022-10-06T02:06:05.242Z,10.50
2022-10-06T02:08:33.150Z,10.60
2022-10-06T02:11:09.856Z,10.60
2022-10-06T02:13:41.196Z,10.70
2022-10-06T02:16:10.035Z,10.50
2022-10-06T02:18:36.921Z,10.40
2022-10-06T02:21:04.790Z,10.30
2022-10-06T02:23:31.789Z,10.50
2022-10-06T02:26:03.506Z,10.60
2022-10-06T02:28:31.674Z,10.60
2022-10-06T02:31:07.362Z,10.70
2022-10-06T02:33:36.198Z,10.70
2022-10-06T02:36:05.698Z,10.70
2022-10-06T02:38:33.378Z,10.60
2022-10-06T02:41:02.218Z,10.70
2022-10-06T02:43:31.829Z,10.70
2022-10-06T02:46:06.461Z,10.70
2022-10-06T02:48:34.962Z,10.70
2022-10-06T02:51:15.634Z,10.60
2022-10-06T02:53:45.640Z,10.40
2022-10-06T02:56:18.348Z,10.20
2022-10-06T02:58:50.191Z,10.10
2022-10-06T03:01:27.093Z,9.90
2022-10-06T03:03:57.273Z,9.90
2022-10-06T03:06:27.189Z,9.90
2022-10-06T03:09:20.265Z,9.80
2022-10-06T03:11:47.276Z,9.80
2022-10-06T03:14:36.843Z,9.70
2022-10-06T03:17:04.819Z,9.60
2022-10-06T03:19:31.680Z,9.60
2022-10-06T03:21:59.391Z,9.60
2022-10-06T03:24:46.422Z,9.50
2022-10-06T03:27:13.197Z,9.40
2022-10-06T03:29:40.078Z,9.30
2022-10-06T03:32:07.339Z,9.10
2022-10-06T03:34:34.996Z,9.10
2022-10-06T03:37:04.917Z,9.00
2022-10-06T03:39:33.727Z,9.00
2022-10-06T03:42:00.864Z,8.90
2022-10-06T03:44:27.723Z,8.90
2022-10-06T03:46:54.753Z,8.80
2022-10-06T03:49:21.641Z,8.80
2022-10-06T03:51:48.458Z,8.70
2022-10-06T03:54:20.465Z,8.60
2022-10-06T03:56:49.804Z,8.60
2022-10-06T03:59:19.445Z,8.60
2022-10-06T04:01:49.003Z,8.50
2022-10-06T04:04:23.691Z,8.50
2022-10-06T04:06:54.733Z,8.40
2022-10-06T04:09:22.534Z,8.50
2022-10-06T04:11:49.624Z,8.50
2022-10-06T04:14:16.976Z,8.50
2022-10-06T04:16:47.897Z,8.50
2022-10-06T04:19:19.044Z,8.50
2022-10-06T04:21:49.857Z,8.40
2022-10-06T04:24:20.559Z,8.60
2022-10-06T04:26:50.063Z,8.60
2022-10-06T04:29:18.475Z,8.60
2022-10-06T04:31:50.566Z,8.60
2022-10-06T04:34:43.681Z,8.80
2022-10-06T04:37:11.123Z,8.80
2022-10-06T04:39:39.543Z,8.90
2022-10-06T04:42:07.568Z,8.90
2022-10-06T04:44:34.335Z,9.00
2022-10-06T04:47:04.386Z,9.00
2022-10-06T04:49:31.802Z,9.00
2022-10-06T04:51:58.921Z,8.90
2022-10-06T04:54:31.358Z,8.90
2022-10-06T04:57:00.814Z,8.80
2022-10-06T04:59:48.570Z,8.80
2022-10-06T05:02:17.110Z,8.80
2022-10-06T05:04:45.539Z,9.10
2022-10-06T05:07:14.327Z,9.10
2022-10-06T05:09:41.891Z,9.10
2022-10-06T05:12:10.205Z,9.10
2022-10-06T05:14:37.132Z,9.10
2022-10-06T05:17:04.731Z,9.10
2022-10-06T05:19:32.106Z,9.30
2022-10-06T05:21:58.995Z,9.40
2022-10-06T05:24:29.921Z,9.50
2022-10-06T05:27:01.471Z,9.60
2022-10-06T05:29:29.047Z,9.60
2022-10-06T05:31:56.727Z,9.60
2022-10-06T05:34:24.241Z,9.40
2022-10-06T05:36:51.649Z,9.20
2022-10-06T05:39:18.484Z,9.10
2022-10-06T05:41:50.029Z,9.00
2022-10-06T05:44:19.507Z,8.90
2022-10-06T05:46:46.644Z,8.90
2022-10-06T05:49:13.840Z,9.00
2022-10-06T05:51:45.800Z,9.00
2022-10-06T05:54:17.976Z,9.10
2022-10-06T05:56:44.863Z,9.20
2022-10-06T05:59:11.835Z,9.50
2022-10-06T06:01:41.205Z,9.70
2022-10-06T06:04:15.855Z,10.00
2022-10-06T06:06:48.818Z,10.30
2022-10-06T06:09:21.504Z,10.40
2022-10-06T06:11:52.619Z,10.40
2022-10-06T06:14:44.245Z,10.40
2022-10-06T06:17:15.804Z,10.40
2022-10-06T06:19:42.691Z,10.50
2022-10-06T06:22:09.541Z,10.60
2022-10-06T06:24:39.781Z,10.70
2022-10-06T06:27:07.542Z,10.90
2022-10-06T06:29:34.510Z,10.90
2022-10-06T06:32:01.432Z,11.00
2022-10-06T06:34:29.065Z,11.00
2022-10-06T06:37:03.593Z,11.00
2022-10-06T06:39:34.261Z,11.10
2022-10-06T06:42:02.135Z,11.20
2022-10-06T06:44:37.965Z,11.40
2022-10-06T06:47:11.490Z,11.50
2022-10-06T06:49:38.616Z,11.80
2022-10-06T06:52:08.188Z,11.90
2022-10-06T06:54:36.680Z,12.10
2022-10-06T06:57:09.846Z,12.20
2022-10-06T06:59:38.180Z,12.30
2022-10-06T07:02:07.133Z,12.50
2022-10-06T07:04:37.898Z,12.70
2022-10-06T07:07:07.487Z,12.70
2022-10-06T07:09:36.596Z,12.80
2022-10-06T07:12:07.486Z,13.00
2022-10-06T07:14:34.340Z,13.30
2022-10-06T07:17:21.144Z,13.40
2022-10-06T07:19:52.624Z,13.60
2022-10-06T07:22:42.475Z,13.60
2022-10-06T07:25:26.661Z,13.80
2022-10-06T07:28:04.370Z,14.20
2022-10-06T07:30:40.832Z,15.00
2022-10-06T07:33:11.900Z,15.50
2022-10-06T07:35:39.570Z,15.80
2022-10-06T07:38:08.052Z,16.00
2022-10-06T07:40:46.191Z,16.20
2022-10-06T07:43:18.189Z,16.20
2022-10-06T07:45:49.505Z,16.20
2022-10-06T07:48:23.589Z,16.50
2022-10-06T07:50:57.815Z,16.50
2022-10-06T07:53:33.291Z,16.10
2022-10-06T07:56:08.359Z,15.90
2022-10-06T07:58:41.630Z,16.00
2022-10-06T08:01:11.700Z,16.30
2022-10-06T08:03:39.514Z,16.70
2022-10-06T08:06:08.164Z,17.00
2022-10-06T08:08:38.204Z,17.20
2022-10-06T08:11:06.837Z,17.20
2022-10-06T08:13:37.599Z,17.30
2022-10-06T08:16:13.298Z,17.60
2022-10-06T08:18:46.429Z,17.70
2022-10-06T08:21:16.779Z,17.50
2022-10-06T08:23:45.008Z,17.20
2022-10-06T08:26:13.509Z,16.80
2022-10-06T08:28:51.598Z,15.90
2022-10-06T08:31:21.291Z,15.70
2022-10-06T08:33:49.487Z,15.40
2022-10-06T08:36:20.640Z,15.00
2022-10-06T08:38:50.085Z,14.70
2022-10-06T08:41:39.816Z,14.60
2022-10-06T08:44:16.637Z,14.90
2022-10-06T08:47:04.595Z,15.20
2022-10-06T08:49:40.133Z,15.10
2022-10-06T08:52:34.540Z,15.20
2022-10-06T08:55:32.804Z,15.10
2022-10-06T08:58:18.222Z,15.30
2022-10-06T09:00:45.130Z,15.80
2022-10-06T09:03:23.680Z,16.30
2022-10-06T09:05:56.727Z,16.20
2022-10-06T09:08:45.348Z,16.40
2022-10-06T09:11:46.506Z,16.50
2022-10-06T09:14:37.561Z,17.10
2022-10-06T09:17:12.878Z,18.30
2022-10-06T09:19:44.941Z,18.90
2022-10-06T09:22:17.659Z,18.30
2022-10-06T09:24:49.589Z,17.50
2022-10-06T09:27:29.562Z,17.30
2022-10-06T09:29:56.564Z,17.20
2022-10-06T09:32:26.198Z,17.20
2022-10-06T09:34:59.700Z,16.80
2022-10-06T09:37:27.160Z,17.00
2022-10-06T09:39:54.737Z,16.80
2022-10-06T09:42:29.789Z,16.40
2022-10-06T09:45:26.210Z,16.70
2022-10-06T09:47:53.013Z,16.40
2022-10-06T09:50:25.135Z,16.30
2022-10-06T09:52:57.861Z,16.10
2022-10-06T09:55:29.347Z,16.00
2022-10-06T09:57:57.787Z,15.80
2022-10-06T10:00:36.494Z,15.90
2022-10-06T10:03:06.458Z,15.80
2022-10-06T10:05:38.181Z,15.90
2022-10-06T10:08:30.852Z,15.80
2022-10-06T10:11:32.504Z,15.70
2022-10-06T10:13:59.981Z,15.70
2022-10-06T10:16:34.960Z,15.60
2022-10-06T10:19:05.812Z,15.70
2022-10-06T10:21:35.463Z,15.80
2022-10-06T10:24:15.864Z,15.90
2022-10-06T10:26:57.201Z,15.90
2022-10-06T10:30:01.677Z,15.90
2022-10-06T10:32:41.714Z,16.10
2022-10-06T10:35:29.028Z,16.30
2022-10-06T10:37:55.867Z,16.60
2022-10-06T10:40:28.885Z,16.90
2022-10-06T10:43:01.846Z,16.90
2022-10-06T10:45:34.324Z,16.50
2022-10-06T10:48:07.155Z,16.30
2022-10-06T10:50:42.730Z,16.30
2022-10-06T10:53:26.162Z,16.70
2022-10-06T10:55:53.331Z,16.90
2022-10-06T10:58:42.121Z,17.00
2022-10-06T11:01:25.963Z,16.80
2022-10-06T11:03:59.211Z,17.10
2022-10-06T11:07:01.320Z,17.10
2022-10-06T11:09:46.928Z,17.00
2022-10-06T11:12:49.796Z,17.10
2022-10-06T11:15:43.927Z,17.20
2022-10-06T11:18:42.890Z,16.80
2022-10-06T11:21:18.822Z,17.00
2022-10-06T11:23:51.769Z,17.20
2022-10-06T11:26:44.694Z,17.30
2022-10-06T11:29:49.032Z,17.30
2022-10-06T11:32:24.168Z,17.60
2022-10-06T11:34:52.115Z,17.80
2022-10-06T11:37:44.535Z,18.30
2022-10-06T11:40:45.688Z,19.00
2022-10-06T11:43:39.413Z,19.60
2022-10-06T11:46:14.131Z,20.50
2022-10-06T11:48:42.541Z,20.40
2022-10-06T11:51:28.206Z,20.70
2022-10-06T11:53:55.706Z,21.10
2022-10-06T11:56:24.047Z,20.80
2022-10-06T11:58:50.786Z,20.70
2022-10-06T12:01:33.462Z,19.70
2022-10-06T12:04:09.331Z,20.40
2022-10-06T12:06:42.419Z,20.50
2022-10-06T12:09:24.638Z,20.90
2022-10-06T12:12:14.684Z,21.10
2022-10-06T12:16:55.305Z,21.00
2022-10-06T12:18:02.764Z,21.40
2022-10-06T12:20:46.559Z,21.60
2022-10-06T12:23:40.601Z,21.10
2022-10-06T12:26:29.915Z,20.40
2022-10-06T12:29:21.455Z,21.40
2022-10-06T12:32:13.300Z,21.60
2022-10-06T12:34:41.981Z,20.90
2022-10-06T12:37:36.707Z,20.40
2022-10-06T12:40:41.020Z,20.00
2022-10-06T12:43:20.880Z,19.70
2022-10-06T12:45:50.673Z,19.50
2022-10-06T12:48:52.001Z,19.50
2022-10-06T12:51:30.455Z,19.50
2022-10-06T12:54:09.013Z,19.50
2022-10-06T12:56:41.894Z,19.20
2022-10-06T12:59:23.856Z,19.40
2022-10-06T13:01:57.032Z,20.10
2022-10-06T13:04:35.799Z,20.70
2022-10-06T13:07:28.754Z,21.00
2022-10-06T13:10:14.159Z,21.20
2022-10-06T13:12:46.640Z,21.00
2022-10-06T13:15:23.662Z,21.70
2022-10-06T13:17:53.647Z,22.10
2022-10-06T13:20:33.329Z,21.90
2022-10-06T13:23:27.552Z,21.20
2022-10-06T13:26:00.104Z,22.00
2022-10-06T13:28:32.987Z,21.40
2022-10-06T13:31:14.888Z,22.20
2022-10-06T13:33:44.329Z,21.80
2022-10-06T13:36:12.483Z,21.90
2022-10-06T13:38:41.279Z,22.10
2022-10-06T13:41:11.186Z,22.50
2022-10-06T13:43:41.760Z,22.60
2022-10-06T13:46:11.418Z,22.30
2022-10-06T13:48:47.642Z,22.30
2022-10-06T13:51:30.012Z,21.60
2022-10-06T13:53:59.030Z,20.70
2022-10-06T13:56:39.184Z,21.00
2022-10-06T13:59:31.525Z,21.40
2022-10-06T14:02:20.419Z,21.30
2022-10-06T14:05:22.845Z,21.60
2022-10-06T14:07:50.868Z,21.90
2022-10-06T14:10:20.558Z,21.70
2022-10-06T14:12:48.103Z,21.40
2022-10-06T14:15:27.327Z,20.60
2022-10-06T14:18:05.071Z,20.40
2022-10-06T14:20:49.088Z,20.40
2022-10-06T14:23:40.831Z,21.00
2022-10-06T14:26:08.984Z,20.90
2022-10-06T14:28:35.978Z,20.50
2022-10-06T14:31:03.454Z,20.10
2022-10-06T14:33:30.306Z,19.40
2022-10-06T14:35:57.177Z,18.60
2022-10-06T14:38:24.663Z,18.50
2022-10-06T14:40:51.556Z,18.20
2022-10-06T14:43:19.322Z,18.30
2022-10-06T14:45:46.549Z,18.20
2022-10-06T14:48:15.336Z,18.30
2022-10-06T14:50:43.688Z,18.20
2022-10-06T14:53:14.288Z,18.10
2022-10-06T14:55:41.285Z,18.20
2022-10-06T14:58:08.240Z,18.20
2022-10-06T15:00:35.430Z,18.10
2022-10-06T15:03:02.589Z,18.30
2022-10-06T15:05:30.703Z,18.50
2022-10-06T15:08:10.332Z,18.60
2022-10-06T15:10:38.929Z,18.30
2022-10-06T15:13:08.410Z,18.40
2022-10-06T15:15:36.017Z,18.40
2022-10-06T15:18:03.679Z,18.20
2022-10-06T15:20:30.476Z,18.30
2022-10-06T15:22:57.354Z,18.40
2022-10-06T15:25:43.111Z,18.10
2022-10-06T15:28:31.835Z,17.70
2022-10-06T15:30:58.989Z,17.80
2022-10-06T15:33:30.531Z,17.80
2022-10-06T15:36:19.125Z,17.40
2022-10-06T15:38:46.062Z,17.30
2022-10-06T15:41:15.493Z,17.40
2022-10-06T15:43:57.778Z,17.40
2022-10-06T15:46:37.509Z,17.30
2022-10-06T15:49:16.329Z,17.10
2022-10-06T15:51:47.466Z,16.90
2022-10-06T15:54:23.559Z,16.60
2022-10-06T15:56:52.931Z,16.60
2022-10-06T15:59:24.204Z,16.60
2022-10-06T16:01:59.836Z,16.30
2022-10-06T16:04:38.025Z,16.10
2022-10-06T16:07:14.230Z,16.00
2022-10-06T16:09:46.052Z,15.90
2022-10-06T16:12:18.299Z,15.80
2022-10-06T16:14:45.370Z,15.60
2022-10-06T16:17:12.886Z,15.50
2022-10-06T16:19:43.189Z,15.50
2022-10-06T16:22:13.243Z,15.40
2022-10-06T16:24:40.261Z,15.30
2022-10-06T16:27:10.519Z,15.30
2022-10-06T16:29:37.482Z,15.20
2022-10-06T16:32:04.298Z,15.10
2022-10-06T16:34:31.538Z,15.00
2022-10-06T16:36:58.750Z,14.90
2022-10-06T16:39:25.519Z,14.80
2022-10-06T16:41:52.501Z,14.70
2022-10-06T16:44:19.283Z,14.70
2022-10-06T16:46:46.154Z,14.70
2022-10-06T16:49:13.006Z,14.70
2022-10-06T16:51:46.030Z,14.70
2022-10-06T16:54:14.767Z,14.70
2022-10-06T16:56:44.317Z,14.50
2022-10-06T16:59:22.638Z,14.40
2022-10-06T17:01:50.693Z,14.20
2022-10-06T17:04:23.333Z,14.10
2022-10-06T17:06:55.561Z,14.10
2022-10-06T17:09:25.471Z,14.00
2022-10-06T17:11:54.617Z,14.00
2022-10-06T17:14:22.707Z,13.90
2022-10-06T17:16:51.985Z,13.90
2022-10-06T17:19:21.243Z,13.80
2022-10-06T17:21:51.537Z,13.80
2022-10-06T17:24:19.991Z,13.70
2022-10-06T17:26:49.563Z,13.70
2022-10-06T17:29:21.949Z,13.60
2022-10-06T17:31:51.098Z,13.50
2022-10-06T17:34:21.464Z,13.40
2022-10-06T17:36:52.515Z,13.40
2022-10-06T17:39:22.519Z,13.30
2022-10-06T17:41:51.890Z,13.30
2022-10-06T17:44:23.765Z,13.30
2022-10-06T17:46:53.833Z,13.20
2022-10-06T17:49:22.011Z,13.20
2022-10-06T17:51:50.215Z,13.20
2022-10-06T17:54:20.208Z,13.20
2022-10-06T17:56:49.804Z,13.30
2022-10-06T17:59:25.810Z,13.20
2022-10-06T18:01:56.862Z,13.30
2022-10-06T18:04:24.240Z,13.20
2022-10-06T18:06:53.186Z,13.20
2022-10-06T18:09:20.386Z,13.20
2022-10-06T18:11:55.702Z,13.30
2022-10-06T18:14:25.322Z,13.30
2022-10-06T18:16:58.471Z,13.20
2022-10-06T18:19:30.113Z,13.10
2022-10-06T18:22:03.631Z,13.10
2022-10-06T18:24:31.861Z,13.10
2022-10-06T18:27:00.550Z,13.20
2022-10-06T18:29:32.605Z,13.20
2022-10-06T18:37:35.187Z,13.40
2022-10-06T18:40:05.861Z,13.30
2022-10-06T18:42:33.062Z,13.40
2022-10-06T18:45:18.832Z,13.40
2022-10-06T18:48:04.513Z,13.40
2022-10-06T18:50:32.160Z,13.50
2022-10-06T18:52:59.039Z,13.50
2022-10-06T18:55:27.788Z,13.50
2022-10-06T18:57:54.563Z,13.50
2022-10-06T19:00:21.913Z,13.50
2022-10-06T19:02:51.774Z,13.50
2022-10-06T19:05:18.781Z,13.50
2022-10-06T19:07:46.238Z,13.40
2022-10-06T19:10:13.224Z,13.50
2022-10-06T19:12:40.078Z,13.40
2022-10-06T19:15:09.883Z,13.40
2022-10-06T19:17:40.737Z,13.40
2022-10-06T19:20:10.890Z,13.40
2022-10-06T19:22:38.446Z,13.30
2022-10-06T19:25:05.707Z,13.30
2022-10-06T19:27:36.160Z,13.30
2022-10-06T19:30:03.992Z,13.30
2022-10-06T19:32:32.737Z,13.30
2022-10-06T19:34:59.631Z,13.10
2022-10-06T19:37:28.323Z,13.10
2022-10-06T19:39:55.265Z,13.10
2022-10-06T19:42:40.709Z,13.20
2022-10-06T19:45:08.595Z,13.10
2022-10-06T19:47:35.638Z,13.10
2022-10-06T19:50:08.676Z,13.10
2022-10-06T19:52:37.595Z,13.10
2022-10-06T19:55:04.874Z,13.10
2022-10-06T19:57:32.598Z,13.10
2022-10-06T19:59:59.387Z,13.00
2022-10-06T20:02:26.276Z,13.00
2022-10-06T20:04:53.111Z,13.00
2022-10-06T20:07:21.817Z,13.00
2022-10-06T20:09:48.842Z,12.90
2022-10-06T20:12:17.849Z,12.80
2022-10-06T20:14:47.699Z,12.80
2022-10-06T20:17:14.481Z,12.90
2022-10-06T20:19:41.216Z,12.90
2022-10-06T20:22:08.068Z,12.90
2022-10-06T20:24:35.205Z,12.90
2022-10-06T20:27:02.411Z,12.80
2022-10-06T20:29:29.618Z,12.70
2022-10-06T20:31:58.869Z,12.70
2022-10-06T20:34:32.061Z,12.70
2022-10-06T20:37:01.906Z,12.70
2022-10-06T20:39:49.524Z,12.70
2022-10-06T20:42:16.840Z,12.80
2022-10-06T20:44:44.105Z,12.70
2022-10-06T20:47:12.251Z,12.70
2022-10-06T20:49:39.197Z,12.70
2022-10-06T20:52:06.414Z,12.70
2022-10-06T20:54:37.183Z,12.60
2022-10-06T20:57:06.396Z,12.60
2022-10-06T20:59:36.491Z,12.50
2022-10-06T21:02:05.193Z,12.60
2022-10-06T21:04:32.287Z,12.60
2022-10-06T21:06:59.294Z,12.50
2022-10-06T21:09:28.530Z,12.50
2022-10-06T21:11:57.524Z,12.50
2022-10-06T21:14:25.054Z,12.50
2022-10-06T21:16:52.635Z,12.40
2022-10-06T21:19:19.828Z,12.40
2022-10-06T21:21:52.265Z,12.40
2022-10-06T21:24:20.483Z,12.30
2022-10-06T21:26:48.340Z,12.30
2022-10-06T21:29:16.004Z,12.20
2022-10-06T21:31:44.065Z,12.20
2022-10-06T21:34:11.532Z,12.20
2022-10-06T21:36:38.758Z,12.30
2022-10-06T21:39:06.767Z,12.50
2022-10-06T21:41:40.812Z,12.40
2022-10-06T21:44:12.323Z,12.40
2022-10-06T21:46:46.789Z,12.40
2022-10-06T21:49:17.153Z,12.40
2022-10-06T21:51:48.322Z,12.30
2022-10-06T21:54:16.261Z,12.30
2022-10-06T21:56:43.758Z,12.30
2022-10-06T21:59:12.100Z,12.30
2022-10-06T22:01:41.958Z,12.30
2022-10-06T22:04:09.349Z,12.30
2022-10-06T22:06:37.403Z,12.30
2022-10-06T22:09:06.205Z,12.30
2022-10-06T22:11:36.091Z,12.20
2022-10-06T22:14:05.272Z,12.20
2022-10-06T22:16:34.216Z,12.20
2022-10-06T22:19:03.352Z,12.20
2022-10-06T22:21:33.013Z,12.10
2022-10-06T22:24:06.029Z,12.10
2022-10-06T22:26:34.850Z,12.00
2022-10-06T22:29:01.863Z,12.10
2022-10-06T22:31:29.709Z,12.10
2022-10-06T22:34:01.663Z,12.10
2022-10-06T22:36:28.933Z,12.10
2022-10-06T22:38:56.540Z,12.10
2022-10-06T22:41:24.037Z,12.00
2022-10-06T22:43:57.554Z,11.90
2022-10-06T22:46:29.459Z,12.00
2022-10-06T22:48:56.919Z,12.00
2022-10-06T22:51:24.272Z,11.90
2022-10-06T22:53:59.924Z,11.90
2022-10-06T22:56:28.975Z,11.90
2022-10-06T22:58:59.838Z,11.90
2022-10-06T23:01:28.299Z,11.90
2022-10-06T23:03:55.809Z,11.90
2022-10-06T23:06:23.348Z,11.90
2022-10-06T23:08:50.275Z,12.00
2022-10-06T23:11:19.826Z,12.00
2022-10-06T23:13:48.514Z,12.00
2022-10-06T23:16:17.559Z,11.90
2022-10-06T23:18:45.283Z,12.00
2022-10-06T23:21:24.246Z,11.90
2022-10-06T23:23:54.385Z,11.90
2022-10-06T23:26:23.158Z,11.90
2022-10-06T23:28:56.235Z,11.90
2022-10-06T23:31:23.596Z,11.90
2022-10-06T23:33:50.905Z,11.90
2022-10-06T23:36:19.037Z,11.90
2022-10-06T23:38:46.880Z,11.80
2022-10-06T23:41:14.149Z,11.80
2022-10-06T23:43:41.070Z,11.70
2022-10-06T23:46:09.127Z,11.70
2022-10-06T23:48:36.177Z,11.50
2022-10-06T23:51:12.177Z,11.40
2022-10-06T23:53:39.850Z,11.30
2022-10-06T23:56:07.094Z,11.20
2022-10-06T23:58:34.514Z,11.00
